createdAt,value
2023-04-22T00:00:31.036Z,86.4079
2023-04-22T00:01:39.090Z,85.7276
2023-04-22T00:02:47.128Z,85.4228
2023-04-22T00:03:55.207Z,84.8492
2023-04-22T00:05:03.353Z,84.2536
2023-04-22T00:06:11.530Z,83.9019
2023-04-22T00:07:19.420Z,83.5006
2023-04-22T00:08:27.473Z,83.0364
2023-04-22T00:09:35.634Z,82.7325
2023-04-22T00:10:43.558Z,83.4852
2023-04-22T00:11:51.685Z,83.7456
2023-04-22T00:12:59.766Z,84.1343
2023-04-22T00:14:07.782Z,84.7918
2023-04-22T00:15:16.042Z,84.9571
2023-04-22T00:16:23.916Z,84.8378
2023-04-22T00:17:32.025Z,84.7443
2023-04-22T00:18:39.899Z,84.7325
2023-04-22T00:19:47.949Z,84.7907
2023-04-22T00:20:56.179Z,84.8579
2023-04-22T00:22:04.229Z,84.7225
2023-04-22T00:23:12.347Z,84.7238
2023-04-22T00:24:20.343Z,84.8827
2023-04-22T00:25:28.427Z,85.5225
2023-04-22T00:26:36.554Z,85.5326
2023-04-22T00:27:44.422Z,85.4674
2023-04-22T00:28:52.659Z,85.1597
2023-04-22T00:30:00.708Z,84.9255
2023-04-22T00:31:08.804Z,85.1784
2023-04-22T00:32:16.704Z,85.1091
2023-04-22T00:33:24.747Z,85.3422
2023-04-22T00:34:32.806Z,86.0699
2023-04-22T00:35:41.640Z,86.5280
2023-04-22T00:36:49.030Z,86.2797
2023-04-22T00:37:57.218Z,86.3416
2023-04-22T00:39:05.212Z,86.6020
2023-04-22T00:40:13.320Z,86.5328
2023-04-22T00:41:21.329Z,86.7443
2023-04-22T00:42:29.438Z,86.5507
2023-04-22T00:43:37.479Z,85.9977
2023-04-22T00:44:45.547Z,85.6876
2023-04-22T00:45:53.741Z,85.5925
2023-04-22T00:47:01.595Z,85.5606
2023-04-22T00:48:09.699Z,85.5643
2023-04-22T00:49:17.677Z,85.8050
2023-04-22T00:50:26.117Z,86.1069
2023-04-22T00:51:33.989Z,86.2414
2023-04-22T00:52:42.014Z,87.1351
2023-04-22T00:53:50.044Z,87.8738
2023-04-22T00:54:58.139Z,88.2865
2023-04-22T00:56:06.198Z,88.2137
2023-04-22T00:57:14.355Z,87.7336
2023-04-22T00:58:22.291Z,87.7517
2023-04-22T00:59:30.398Z,88.3307
2023-04-22T01:00:38.460Z,88.5161
2023-04-22T01:01:46.442Z,88.2125
2023-04-22T01:02:54.597Z,88.4731
2023-04-22T01:04:02.627Z,88.3657
2023-04-22T01:05:10.954Z,88.0589
2023-04-22T01:06:18.746Z,88.0348
2023-04-22T01:07:26.957Z,87.9594
2023-04-22T01:08:34.930Z,87.8378
2023-04-22T01:09:43.050Z,87.5404
2023-04-22T01:10:51.052Z,87.7207
2023-04-22T01:11:59.112Z,88.1173
2023-04-22T01:13:07.213Z,88.0458
2023-04-22T01:14:15.234Z,87.9027
2023-04-22T01:15:23.305Z,87.3174
2023-04-22T01:16:31.360Z,87.0264
2023-04-22T01:17:39.389Z,86.6273
2023-04-22T01:18:47.388Z,86.9112
2023-04-22T01:19:55.593Z,86.8054
2023-04-22T01:21:03.823Z,86.6657
2023-04-22T01:22:11.947Z,86.6216
2023-04-22T01:23:19.765Z,86.3760
2023-04-22T01:24:27.930Z,87.1421
2023-04-22T01:25:35.896Z,87.7272
2023-04-22T01:26:43.951Z,88.2585
2023-04-22T01:27:52.196Z,88.5696
2023-04-22T01:29:00.121Z,88.7560
2023-04-22T01:30:08.221Z,88.4524
2023-04-22T01:31:16.094Z,88.0898
2023-04-22T01:32:24.203Z,87.9728
2023-04-22T01:33:32.222Z,87.8409
2023-04-22T01:34:40.372Z,87.6932
2023-04-22T01:35:48.604Z,87.7877
2023-04-22T01:36:56.690Z,87.7435
2023-04-22T01:38:04.603Z,87.9733
2023-04-22T01:39:12.720Z,88.2492
2023-04-22T01:40:20.762Z,88.6613
2023-04-22T01:41:28.815Z,88.7306
2023-04-22T01:42:36.873Z,88.9446
2023-04-22T01:43:44.958Z,88.9454
2023-04-22T01:44:53.169Z,88.5527
2023-04-22T01:46:00.944Z,87.7150
2023-04-22T01:47:09.042Z,87.1706
2023-04-22T01:48:17.083Z,87.1742
2023-04-22T01:49:25.255Z,87.3023
2023-04-22T01:50:33.336Z,87.8701
2023-04-22T01:51:41.456Z,87.9342
2023-04-22T01:52:49.618Z,87.4326
2023-04-22T01:53:57.491Z,86.9226
2023-04-22T01:55:05.586Z,87.5220
2023-04-22T01:56:13.641Z,87.6015
2023-04-22T01:57:21.750Z,88.1643
2023-04-22T01:58:29.840Z,88.6630
2023-04-22T01:59:38.194Z,88.5324
2023-04-22T02:00:45.792Z,88.5430
2023-04-22T02:01:53.879Z,88.7862
2023-04-22T02:03:02.282Z,88.6384
2023-04-22T02:04:10.181Z,89.2024
2023-04-22T02:05:18.232Z,89.1578
2023-04-22T02:06:26.329Z,88.5433
2023-04-22T02:07:34.374Z,88.5863
2023-04-22T02:08:42.636Z,88.8095
2023-04-22T02:09:50.977Z,89.0352
2023-04-22T02:10:58.619Z,88.6480
2023-04-22T02:12:06.654Z,88.4310
2023-04-22T02:13:14.722Z,88.5761
2023-04-22T02:14:22.792Z,88.8773
2023-04-22T02:15:30.716Z,89.2366
2023-04-22T02:16:38.798Z,89.9664
2023-04-22T02:17:46.818Z,90.0863
2023-04-22T02:18:55.143Z,89.5491
2023-04-22T02:20:03.166Z,89.2349
2023-04-22T02:21:11.388Z,89.2393
2023-04-22T02:22:19.272Z,89.2272
2023-04-22T02:23:27.294Z,89.2590
2023-04-22T02:24:35.549Z,88.9890
2023-04-22T02:25:43.412Z,87.8631
2023-04-22T02:26:51.490Z,87.5552
2023-04-22T02:27:59.535Z,88.6105
2023-04-22T02:29:07.609Z,90.1443
2023-04-22T02:30:15.648Z,90.2480
2023-04-22T02:31:23.614Z,90.2157
2023-04-22T02:32:31.792Z,90.1507
2023-04-22T02:33:39.907Z,89.8694
2023-04-22T02:34:47.954Z,89.5684
2023-04-22T02:35:56.124Z,89.4689
2023-04-22T02:37:04.084Z,88.8758
2023-04-22T02:38:12.261Z,88.6083
2023-04-22T02:39:20.239Z,89.0206
2023-04-22T02:40:28.399Z,89.2631
2023-04-22T02:41:36.450Z,88.8560
2023-04-22T02:42:44.403Z,88.2066
2023-04-22T02:43:52.497Z,88.1400
2023-04-22T02:45:00.439Z,88.1535
2023-04-22T02:46:08.518Z,88.1908
2023-04-22T02:47:16.587Z,88.5322
2023-04-22T02:48:24.777Z,88.9390
2023-04-22T02:49:32.854Z,88.8711
2023-04-22T02:50:40.949Z,90.0131
2023-04-22T02:51:49.022Z,90.9848
2023-04-22T02:52:57.125Z,91.4026
2023-04-22T02:54:05.191Z,91.2997
2023-04-22T02:55:13.248Z,90.9077
2023-04-22T02:56:21.267Z,90.9394
2023-04-22T02:57:29.518Z,91.6409
2023-04-22T02:58:37.509Z,91.8151
2023-04-22T02:59:45.345Z,91.4824
2023-04-22T03:00:53.440Z,90.9556
2023-04-22T03:02:01.714Z,90.2913
2023-04-22T03:03:09.819Z,89.9171
2023-04-22T03:04:17.843Z,90.0185
2023-04-22T03:05:25.838Z,90.6128
2023-04-22T03:06:33.886Z,91.2750
2023-04-22T03:07:41.961Z,91.3774
2023-04-22T03:08:50.070Z,90.6381
2023-04-22T03:09:58.292Z,89.8854
2023-04-22T03:11:06.125Z,89.4269
2023-04-22T03:12:14.222Z,89.0713
2023-04-22T03:13:22.273Z,88.9654
2023-04-22T03:14:30.252Z,88.5029
2023-04-22T03:15:38.294Z,88.7868
2023-04-22T03:16:46.378Z,89.2009
2023-04-22T03:17:54.565Z,89.9047
2023-04-22T03:19:02.654Z,89.9655
2023-04-22T03:20:10.766Z,89.6405
2023-04-22T03:21:18.777Z,89.6522
2023-04-22T03:22:26.829Z,89.4171
2023-04-22T03:23:34.887Z,88.8286
2023-04-22T03:24:42.949Z,88.3506
2023-04-22T03:25:51.112Z,87.4729
2023-04-22T03:26:59.125Z,86.9848
2023-04-22T03:28:07.148Z,87.1452
2023-04-22T03:29:15.089Z,87.0499
2023-04-22T03:30:23.185Z,86.7595
2023-04-22T03:31:31.304Z,87.2448
2023-04-22T03:32:39.447Z,87.6826
2023-04-22T03:33:47.457Z,87.8727
2023-04-22T03:34:55.576Z,87.9377
2023-04-22T03:36:03.642Z,88.0457
2023-04-22T03:37:11.781Z,88.1129
2023-04-22T03:38:20.115Z,87.8932
2023-04-22T03:39:27.842Z,87.6745
2023-04-22T03:40:35.899Z,87.2525
2023-04-22T03:41:44.038Z,86.8494
2023-04-22T03:42:52.034Z,86.6549
2023-04-22T03:44:01.775Z,86.9386
2023-04-22T03:45:12.870Z,87.3164
2023-04-22T03:46:21.210Z,88.0208
2023-04-22T03:47:29.326Z,88.2847
2023-04-22T03:48:37.226Z,88.2228
2023-04-22T03:49:45.320Z,88.4163
2023-04-22T03:50:53.365Z,88.5146
2023-04-22T03:52:01.441Z,88.4754
2023-04-22T03:53:09.641Z,88.5283
2023-04-22T03:54:17.551Z,88.1825
2023-04-22T03:55:25.639Z,88.1168
2023-04-22T03:56:33.707Z,88.1005
2023-04-22T03:57:41.651Z,88.4372
2023-04-22T03:58:49.732Z,89.6479
2023-04-22T03:59:57.762Z,90.2012
2023-04-22T04:01:05.942Z,90.3777
2023-04-22T04:02:14.125Z,90.5869
2023-04-22T04:03:22.234Z,90.9720
2023-04-22T04:04:30.646Z,91.4993
2023-04-22T04:05:38.339Z,91.6586
2023-04-22T04:06:46.241Z,91.2958
2023-04-22T04:07:54.308Z,90.5206
2023-04-22T04:09:02.468Z,90.1120
2023-04-22T04:10:10.552Z,89.9191
2023-04-22T04:11:18.526Z,90.6488
2023-04-22T04:12:26.517Z,91.0752
2023-04-22T04:13:34.573Z,91.3202
2023-04-22T04:14:42.680Z,91.5495
2023-04-22T04:15:50.924Z,91.5992
2023-04-22T04:16:58.905Z,91.2156
2023-04-22T04:18:07.072Z,90.1262
2023-04-22T04:19:14.997Z,90.2274
2023-04-22T04:20:23.145Z,90.3670
2023-04-22T04:21:31.141Z,89.3824
2023-04-22T04:22:39.242Z,89.0001
2023-04-22T04:23:47.238Z,90.3816
2023-04-22T04:24:55.505Z,90.9746
2023-04-22T04:26:03.423Z,91.1386
2023-04-22T04:27:11.349Z,90.9922
2023-04-22T04:28:19.442Z,90.7856
2023-04-22T04:29:27.511Z,89.7814
2023-04-22T04:30:35.768Z,89.2838
2023-04-22T04:31:44.018Z,89.3232
2023-04-22T04:32:51.917Z,89.1855
2023-04-22T04:33:59.872Z,88.7267
2023-04-22T04:35:08.102Z,88.2287
2023-04-22T04:36:16.071Z,87.5748
2023-04-22T04:37:24.046Z,87.3505
2023-04-22T04:38:32.118Z,86.8483
2023-04-22T04:39:40.523Z,86.3436
2023-04-22T04:40:48.189Z,86.5599
2023-04-22T04:41:56.275Z,86.4069
2023-04-22T04:43:04.340Z,86.1976
2023-04-22T04:44:13.125Z,86.6657
2023-04-22T04:45:20.599Z,86.9266
2023-04-22T04:46:28.748Z,86.8045
2023-04-22T04:47:36.804Z,86.7767
2023-04-22T04:48:44.746Z,86.9359
2023-04-22T04:49:52.849Z,87.3579
2023-04-22T04:51:01.006Z,87.6552
2023-04-22T04:52:09.005Z,87.6322
2023-04-22T04:53:17.020Z,88.0964
2023-04-22T04:54:25.045Z,88.9811
2023-04-22T04:55:33.046Z,88.8456
2023-04-22T04:56:41.130Z,88.6007
2023-04-22T04:57:49.232Z,88.2561
2023-04-22T04:58:57.615Z,88.4511
2023-04-22T05:00:05.514Z,88.5778
2023-04-22T05:01:13.562Z,88.3136
2023-04-22T05:02:21.775Z,88.0343
2023-04-22T05:03:29.816Z,88.1639
2023-04-22T05:04:37.855Z,88.1840
2023-04-22T05:05:45.718Z,88.2258
2023-04-22T05:06:53.815Z,88.0768
2023-04-22T05:08:02.072Z,87.6985
2023-04-22T05:09:09.979Z,87.3541
2023-04-22T05:10:17.925Z,87.5497
2023-04-22T05:11:26.001Z,88.0507
2023-04-22T05:12:34.047Z,88.2285
2023-04-22T05:13:42.262Z,88.9496
2023-04-22T05:14:50.370Z,88.6900
2023-04-22T05:15:58.425Z,88.4656
2023-04-22T05:17:06.391Z,88.1071
2023-04-22T05:18:14.470Z,87.8354
2023-04-22T05:19:22.596Z,88.7174
2023-04-22T05:20:31.612Z,89.8977
2023-04-22T05:21:43.550Z,90.3562
2023-04-22T05:22:51.595Z,90.4425
2023-04-22T05:23:59.592Z,90.5488
2023-04-22T05:25:07.648Z,90.6082
2023-04-22T05:26:15.788Z,90.3089
2023-04-22T05:27:23.923Z,89.9135
2023-04-22T05:28:31.956Z,89.6390
2023-04-22T05:29:40.221Z,89.5766
2023-04-22T05:30:48.100Z,90.0723
2023-04-22T05:31:56.551Z,90.1827
2023-04-22T05:33:04.301Z,89.7811
2023-04-22T05:34:12.506Z,89.2178
2023-04-22T05:35:20.341Z,88.7973
2023-04-22T05:36:31.174Z,88.6181
2023-04-22T05:37:41.246Z,88.5298
2023-04-22T05:38:49.284Z,88.4515
2023-04-22T05:39:57.367Z,88.3820
2023-04-22T05:41:05.675Z,88.1044
2023-04-22T05:42:13.640Z,88.0505
2023-04-22T05:43:21.583Z,88.5241
2023-04-22T05:44:29.683Z,88.9818
2023-04-22T05:45:37.816Z,89.3433
2023-04-22T05:46:45.846Z,89.7752
2023-04-22T05:47:54.105Z,90.1644
2023-04-22T05:49:01.920Z,90.1289
2023-04-22T05:50:10.040Z,89.7704
2023-04-22T05:51:18.171Z,89.2805
2023-04-22T05:52:26.038Z,88.8510
2023-04-22T05:53:34.183Z,88.6456
2023-04-22T05:54:42.179Z,88.1307
2023-04-22T05:55:50.339Z,88.0883
2023-04-22T05:56:58.399Z,88.4745
2023-04-22T05:58:06.461Z,88.8234
2023-04-22T05:59:14.663Z,89.4309
2023-04-22T06:00:22.576Z,89.9341
2023-04-22T06:01:30.638Z,90.2363
2023-04-22T06:02:38.835Z,90.4866
2023-04-22T06:03:46.913Z,90.8806
2023-04-22T06:04:55.048Z,90.6430
2023-04-22T06:06:02.936Z,90.5486
2023-04-22T06:07:10.906Z,90.1003
2023-04-22T06:08:18.965Z,89.2561
2023-04-22T06:09:27.147Z,89.3312
2023-04-22T06:10:35.231Z,89.5366
2023-04-22T06:11:43.304Z,89.4477
2023-04-22T06:12:51.417Z,89.5435
2023-04-22T06:13:59.363Z,89.3797
2023-04-22T06:15:07.642Z,89.5322
2023-04-22T06:16:15.651Z,89.2228
2023-04-22T06:17:23.685Z,89.2078
2023-04-22T06:18:31.720Z,89.2596
2023-04-22T06:19:40.084Z,89.0879
2023-04-22T06:20:47.788Z,88.8429
2023-04-22T06:21:55.797Z,88.2866
2023-04-22T06:23:03.870Z,87.7582
2023-04-22T06:24:11.996Z,87.6990
2023-04-22T06:25:20.067Z,87.4313
2023-04-22T06:26:28.198Z,87.2520
2023-04-22T06:27:36.194Z,87.2453
2023-04-22T06:28:44.262Z,87.2482
2023-04-22T06:29:52.482Z,87.4800
2023-04-22T06:31:00.407Z,87.6256
2023-04-22T06:32:08.558Z,87.7769
2023-04-22T06:33:16.650Z,88.2390
2023-04-22T06:34:24.658Z,88.7139
2023-04-22T06:35:32.575Z,89.0357
2023-04-22T06:36:40.657Z,89.5632
2023-04-22T06:37:48.738Z,89.4569
2023-04-22T06:38:56.917Z,89.2003
2023-04-22T06:40:04.905Z,89.0349
2023-04-22T06:41:13.007Z,88.9490
2023-04-22T06:42:21.032Z,88.9635
2023-04-22T06:43:29.152Z,89.4141
2023-04-22T06:44:37.157Z,89.5347
2023-04-22T06:45:45.291Z,89.6669
2023-04-22T06:46:54.758Z,89.4955
2023-04-22T06:48:06.226Z,89.0815
2023-04-22T06:49:14.273Z,88.3645
2023-04-22T06:50:22.352Z,87.9936
2023-04-22T06:51:30.341Z,88.3408
2023-04-22T06:52:38.423Z,87.9121
2023-04-22T06:53:46.487Z,87.5304
2023-04-22T06:54:54.599Z,87.6285
2023-04-22T06:56:02.672Z,88.1242
2023-04-22T06:57:10.705Z,88.0693
2023-04-22T06:58:18.809Z,87.8601
2023-04-22T06:59:26.887Z,87.4251
2023-04-22T07:00:34.963Z,86.9207
2023-04-22T07:01:43.095Z,86.8058
2023-04-22T07:02:51.191Z,87.5798
2023-04-22T07:03:59.129Z,88.3514
2023-04-22T07:05:07.146Z,89.0182
2023-04-22T07:06:15.204Z,89.0156
2023-04-22T07:07:23.256Z,89.0990
2023-04-22T07:08:31.463Z,88.6016
2023-04-22T07:09:39.708Z,88.1507
2023-04-22T07:10:47.558Z,87.7244
2023-04-22T07:11:55.571Z,87.7084
2023-04-22T07:13:03.768Z,87.1552
2023-04-22T07:14:11.688Z,87.0627
2023-04-22T07:15:19.895Z,87.0510
2023-04-22T07:16:27.972Z,86.6963
2023-04-22T07:17:36.010Z,86.3899
2023-04-22T07:18:43.897Z,85.8041
2023-04-22T07:19:51.971Z,85.6541
2023-04-22T07:21:00.035Z,85.2662
2023-04-22T07:22:08.127Z,84.5532
2023-04-22T07:23:16.183Z,83.7264
2023-04-22T07:24:24.383Z,83.7990
2023-04-22T07:25:32.322Z,83.7074
2023-04-22T07:26:40.528Z,83.6097
2023-04-22T07:27:48.514Z,83.8204
2023-04-22T07:28:56.541Z,83.7263
2023-04-22T07:30:04.586Z,83.1059
2023-04-22T07:31:12.683Z,83.5172
2023-04-22T07:32:20.855Z,84.3915
2023-04-22T07:33:28.747Z,84.2974
2023-04-22T07:34:36.791Z,83.6778
2023-04-22T07:35:44.829Z,83.6081
2023-04-22T07:36:52.870Z,83.4140
2023-04-22T07:38:01.035Z,83.5777
2023-04-22T07:39:09.251Z,84.0428
2023-04-22T07:40:17.165Z,83.5928
2023-04-22T07:41:25.245Z,82.8897
2023-04-22T07:42:33.415Z,83.2843
2023-04-22T07:43:41.355Z,82.7664
2023-04-22T07:44:49.455Z,82.2411
2023-04-22T07:45:57.538Z,82.2126
2023-04-22T07:47:05.690Z,82.9589
2023-04-22T07:48:13.622Z,83.1298
2023-04-22T07:49:21.632Z,82.4819
2023-04-22T07:50:29.731Z,82.5889
2023-04-22T07:51:37.827Z,82.6712
2023-04-22T07:52:45.940Z,81.9262
2023-04-22T07:53:53.912Z,81.5213
2023-04-22T07:55:02.162Z,81.0955
2023-04-22T07:56:10.105Z,81.9586
2023-04-22T07:57:18.151Z,81.9387
2023-04-22T07:58:26.234Z,82.4421
2023-04-22T07:59:34.300Z,82.5863
2023-04-22T08:00:42.494Z,82.5406
2023-04-22T08:01:50.651Z,82.0771
2023-04-22T08:02:58.577Z,81.1584
2023-04-22T08:04:06.656Z,81.5151
2023-04-22T08:05:14.634Z,82.5310
2023-04-22T08:06:23.022Z,81.8085
2023-04-22T08:07:33.394Z,81.4298
2023-04-22T08:08:43.734Z,80.7658
2023-04-22T08:09:51.939Z,80.5770
2023-04-22T08:10:59.932Z,80.3881
2023-04-22T08:12:07.906Z,80.1842
2023-04-22T08:13:18.136Z,79.8165
2023-04-22T08:14:28.877Z,79.0373
2023-04-22T08:15:36.940Z,78.5318
2023-04-22T08:16:44.935Z,77.7686
2023-04-22T08:17:53.039Z,77.5431
2023-04-22T08:19:01.280Z,77.5612
2023-04-22T08:20:09.263Z,77.2485
2023-04-22T08:21:17.295Z,76.1060
2023-04-22T08:22:25.344Z,76.0990
2023-04-22T08:23:33.488Z,75.6328
2023-04-22T08:24:41.444Z,74.9953
2023-04-22T08:25:49.583Z,74.0004
2023-04-22T08:26:57.617Z,73.2694
2023-04-22T08:28:05.707Z,73.6343
2023-04-22T08:29:13.743Z,74.0083
2023-04-22T08:30:21.741Z,74.1176
2023-04-22T08:31:29.772Z,74.1020
2023-04-22T08:32:37.877Z,74.1912
2023-04-22T08:33:46.083Z,73.3845
2023-04-22T08:34:57.720Z,72.4387
2023-04-22T08:36:06.984Z,71.3574
2023-04-22T08:37:15.065Z,71.0641
2023-04-22T08:38:23.056Z,70.3632
2023-04-22T08:39:31.298Z,70.4044
2023-04-22T08:40:39.349Z,69.7831
2023-04-22T08:41:47.276Z,69.5273
2023-04-22T08:42:55.425Z,69.9105
2023-04-22T08:44:03.334Z,70.3763
2023-04-22T08:45:11.436Z,70.1525
2023-04-22T08:46:19.471Z,70.7028
2023-04-22T08:47:27.625Z,71.2713
2023-04-22T08:48:35.734Z,69.6342
2023-04-22T08:49:43.641Z,67.7761
2023-04-22T08:50:51.898Z,67.1421
2023-04-22T08:51:59.971Z,67.2982
2023-04-22T08:53:07.912Z,68.4726
2023-04-22T08:54:16.062Z,68.1017
2023-04-22T08:55:24.040Z,68.2655
2023-04-22T08:56:32.125Z,68.0601
2023-04-22T08:57:40.196Z,67.6823
2023-04-22T08:58:48.231Z,66.8874
2023-04-22T08:59:56.242Z,67.1187
2023-04-22T09:01:04.318Z,67.6309
2023-04-22T09:02:12.543Z,67.0919
2023-04-22T09:03:20.574Z,66.6786
2023-04-22T09:04:28.604Z,66.6830
2023-04-22T09:05:36.687Z,66.0291
2023-04-22T09:06:44.664Z,65.7024
2023-04-22T09:07:52.872Z,66.4440
2023-04-22T09:09:00.826Z,65.9567
2023-04-22T09:10:08.862Z,65.9162
2023-04-22T09:11:16.911Z,66.8330
2023-04-22T09:12:24.994Z,66.0261
2023-04-22T09:13:33.014Z,64.8513
2023-04-22T09:14:41.031Z,64.4832
2023-04-22T09:15:49.075Z,64.2526
2023-04-22T09:16:57.388Z,64.7052
2023-04-22T09:18:05.295Z,65.0643
2023-04-22T09:19:13.429Z,64.8602
2023-04-22T09:20:21.488Z,64.8585
2023-04-22T09:21:29.494Z,63.9372
2023-04-22T09:22:37.523Z,63.7712
2023-04-22T09:23:45.720Z,64.5643
2023-04-22T09:24:53.723Z,64.3229
2023-04-22T09:26:01.744Z,63.7784
2023-04-22T09:27:09.768Z,63.5856
2023-04-22T09:28:17.919Z,64.2750
2023-04-22T09:29:25.837Z,65.1404
2023-04-22T09:30:34.082Z,62.9894
2023-04-22T09:31:41.994Z,61.7562
2023-04-22T09:32:50.146Z,61.4520
2023-04-22T09:33:58.146Z,62.8375
2023-04-22T09:35:06.311Z,62.7965
2023-04-22T09:36:14.291Z,63.8185
2023-04-22T09:37:22.337Z,63.8981
2023-04-22T09:38:30.432Z,62.4841
2023-04-22T09:39:38.711Z,62.1082
2023-04-22T09:40:46.488Z,62.5279
2023-04-22T09:41:54.659Z,62.9933
2023-04-22T09:43:02.601Z,62.4306
2023-04-22T09:44:10.711Z,63.6959
2023-04-22T09:45:18.940Z,61.8252
2023-04-22T09:46:26.742Z,60.2509
2023-04-22T09:47:34.916Z,59.1592
2023-04-22T09:48:43.031Z,58.9112
2023-04-22T09:49:51.083Z,59.1341
2023-04-22T09:50:59.072Z,59.8453
2023-04-22T09:52:07.174Z,59.8191
2023-04-22T09:53:15.216Z,60.0830
2023-04-22T09:54:23.242Z,60.3110
2023-04-22T09:55:31.477Z,60.5753
2023-04-22T09:56:39.394Z,61.7477
2023-04-22T09:57:47.432Z,61.4490
2023-04-22T09:58:55.446Z,60.3634
2023-04-22T10:00:03.472Z,58.8779
2023-04-22T10:01:11.594Z,58.7425
2023-04-22T10:02:19.698Z,59.2125
2023-04-22T10:03:27.853Z,59.8293
2023-04-22T10:04:36.073Z,59.5682
2023-04-22T10:05:43.854Z,60.3755
2023-04-22T10:06:51.931Z,60.1200
2023-04-22T10:08:00.183Z,60.4422
2023-04-22T10:09:09.411Z,59.0282
2023-04-22T10:10:16.102Z,58.8695
2023-04-22T10:11:24.540Z,58.5839
2023-04-22T10:12:35.532Z,57.3584
2023-04-22T10:13:45.112Z,56.8093
2023-04-22T10:14:53.372Z,57.2659
2023-04-22T10:16:01.336Z,57.7435
2023-04-22T10:17:09.386Z,56.7129
2023-04-22T10:18:17.381Z,55.8802
2023-04-22T10:19:25.609Z,54.7866
2023-04-22T10:20:33.620Z,54.1679
2023-04-22T10:21:41.675Z,51.9247
2023-04-22T10:22:49.723Z,50.5595
2023-04-22T10:23:57.773Z,50.7339
2023-04-22T10:25:06.027Z,50.1732
2023-04-22T10:26:13.845Z,49.0182
2023-04-22T10:27:21.878Z,46.3955
2023-04-22T10:28:29.998Z,45.9203
2023-04-22T10:29:38.316Z,46.1781
2023-04-22T10:30:46.185Z,46.5481
2023-04-22T10:31:54.260Z,46.1186
2023-04-22T10:33:02.328Z,44.5937
2023-04-22T10:34:10.313Z,43.8353
2023-04-22T10:35:18.496Z,44.3607
2023-04-22T10:36:26.486Z,44.1528
2023-04-22T10:37:34.514Z,45.2029
2023-04-22T10:38:42.556Z,46.1138
2023-04-22T10:39:50.740Z,45.9245
2023-04-22T10:40:58.726Z,45.3650
2023-04-22T10:42:06.727Z,44.9554
2023-04-22T10:43:14.778Z,42.2275
2023-04-22T10:44:23.006Z,41.6840
2023-04-22T10:45:30.951Z,41.0381
2023-04-22T10:46:39.099Z,42.2176
2023-04-22T10:47:47.256Z,41.1246
2023-04-22T10:48:55.225Z,40.6013
2023-04-22T10:50:03.291Z,41.3028
2023-04-22T10:51:11.506Z,41.9800
2023-04-22T10:52:19.531Z,40.4921
2023-04-22T10:53:27.568Z,40.4730
2023-04-22T10:54:35.606Z,39.9627
2023-04-22T10:55:43.780Z,39.5406
2023-04-22T10:56:57.584Z,39.4196
2023-04-22T10:58:04.648Z,40.0315
2023-04-22T10:59:12.738Z,41.4348
2023-04-22T11:00:20.861Z,42.6155
2023-04-22T11:01:28.917Z,43.5113
2023-04-22T11:02:36.951Z,43.4570
2023-04-22T11:03:45.038Z,42.1221
2023-04-22T11:04:53.083Z,41.8737
2023-04-22T11:06:01.081Z,41.2218
2023-04-22T11:07:09.251Z,40.7888
2023-04-22T11:08:17.201Z,40.6298
2023-04-22T11:09:25.161Z,41.5973
2023-04-22T11:10:33.284Z,42.3210
2023-04-22T11:11:41.328Z,42.7303
2023-04-22T11:12:49.435Z,42.9817
2023-04-22T11:13:57.482Z,43.7036
2023-04-22T11:15:05.615Z,44.4119
2023-04-22T11:16:13.659Z,44.2031
2023-04-22T11:17:21.704Z,42.7102
2023-04-22T11:18:29.758Z,42.4120
2023-04-22T11:19:38.212Z,41.3552
2023-04-22T11:20:45.932Z,41.5670
2023-04-22T11:21:54.088Z,41.3545
2023-04-22T11:23:02.093Z,41.4793
2023-04-22T11:24:10.033Z,41.0769
2023-04-22T11:25:18.077Z,42.1970
2023-04-22T11:26:26.182Z,43.2779
2023-04-22T11:27:34.234Z,43.0884
2023-04-22T11:28:42.344Z,41.9462
2023-04-22T11:29:50.391Z,42.4587
2023-04-22T11:30:58.469Z,43.4522
2023-04-22T11:32:06.426Z,44.4756
2023-04-22T11:33:14.515Z,43.9493
2023-04-22T11:34:22.688Z,44.4153
2023-04-22T11:35:30.809Z,44.8017
2023-04-22T11:36:38.820Z,44.2552
2023-04-22T11:37:46.863Z,44.3294
2023-04-22T11:38:54.811Z,43.3725
2023-04-22T11:40:21.373Z,42.1204
2023-04-22T11:41:15.897Z,41.5396
2023-04-22T11:42:24.079Z,41.9575
2023-04-22T11:43:31.908Z,42.9315
2023-04-22T11:44:39.975Z,43.5813
2023-04-22T11:45:48.094Z,43.5013
2023-04-22T11:46:56.317Z,42.6411
2023-04-22T11:48:04.220Z,43.2466
2023-04-22T11:49:12.373Z,43.0850
2023-04-22T11:50:20.241Z,42.6779
2023-04-22T11:51:28.347Z,43.2193
2023-04-22T11:52:36.372Z,42.8623
2023-04-22T11:53:44.454Z,42.2556
2023-04-22T11:54:52.495Z,41.3585
2023-04-22T11:56:00.713Z,41.3804
2023-04-22T11:57:08.784Z,42.9585
2023-04-22T11:58:16.703Z,43.0826
2023-04-22T11:59:24.923Z,43.1277
2023-04-22T12:00:32.945Z,42.7149
2023-04-22T12:01:41.118Z,41.1278
2023-04-22T12:02:49.132Z,41.0149
2023-04-22T12:03:57.208Z,40.9509
2023-04-22T12:05:05.127Z,41.7867
2023-04-22T12:06:13.097Z,42.7708
2023-04-22T12:07:21.186Z,42.5128
2023-04-22T12:08:29.238Z,43.4177
2023-04-22T12:09:37.484Z,44.6019
2023-04-22T12:10:45.384Z,46.3834
2023-04-22T12:11:53.434Z,45.9954
2023-04-22T12:13:01.578Z,46.4750
2023-04-22T12:14:09.569Z,47.6009
2023-04-22T12:15:18.751Z,47.5430
2023-04-22T12:16:25.749Z,48.2988
2023-04-22T12:17:33.727Z,47.6310
2023-04-22T12:18:41.799Z,48.3142
2023-04-22T12:19:49.916Z,49.6020
2023-04-22T12:20:58.001Z,50.1560
2023-04-22T12:22:06.246Z,48.6664
2023-04-22T12:23:14.012Z,48.7120
2023-04-22T12:24:22.124Z,49.4757
2023-04-22T12:25:30.145Z,50.3435
2023-04-22T12:26:38.202Z,50.1732
2023-04-22T12:27:46.257Z,48.8900
2023-04-22T12:28:54.318Z,48.6664
2023-04-22T12:30:02.466Z,48.4229
2023-04-22T12:31:10.558Z,48.1956
2023-04-22T12:32:18.550Z,48.4148
2023-04-22T12:33:26.554Z,48.2912
2023-04-22T12:34:34.653Z,47.9670
2023-04-22T12:35:42.763Z,47.4409
2023-04-22T12:36:50.753Z,46.8038
2023-04-22T12:37:58.830Z,46.4405
2023-04-22T12:39:06.861Z,46.6057
2023-04-22T12:40:14.960Z,46.1525
2023-04-22T12:41:23.281Z,45.7096
2023-04-22T12:42:31.138Z,46.1466
2023-04-22T12:43:39.235Z,46.7255
2023-04-22T12:44:47.188Z,46.1953
2023-04-22T12:45:55.329Z,45.5751
2023-04-22T12:47:03.310Z,45.0855
2023-04-22T12:48:11.717Z,44.8080
2023-04-22T12:49:19.477Z,44.9831
2023-04-22T12:50:27.621Z,45.4273
2023-04-22T12:51:35.955Z,44.9868
2023-04-22T12:52:43.651Z,44.9092
2023-04-22T12:53:51.691Z,44.4232
2023-04-22T12:54:59.772Z,44.2116
2023-04-22T12:56:07.896Z,44.4251
2023-04-22T12:57:15.866Z,44.6284
2023-04-22T12:58:23.912Z,44.1298
2023-04-22T12:59:32.109Z,44.1983
2023-04-22T13:00:40.119Z,42.6177
2023-04-22T13:01:48.267Z,42.6677
2023-04-22T13:02:56.307Z,42.7474
2023-04-22T13:04:04.543Z,42.6760
2023-04-22T13:05:12.442Z,43.7407
2023-04-22T13:06:20.472Z,43.8538
2023-04-22T13:07:28.382Z,44.1557
2023-04-22T13:08:36.459Z,44.1332
2023-04-22T13:09:44.515Z,45.2313
2023-04-22T13:10:52.685Z,45.5233
2023-04-22T13:12:00.794Z,43.9824
2023-04-22T13:14:21.694Z,42.3238
2023-04-22T13:15:29.798Z,42.1960
2023-04-22T13:16:37.962Z,42.9832
2023-04-22T13:17:47.624Z,42.8636
2023-04-22T13:18:58.817Z,42.6152
2023-04-22T13:20:06.798Z,42.1195
2023-04-22T13:21:14.902Z,42.3812
2023-04-22T13:22:22.932Z,43.1382
2023-04-22T13:23:31.130Z,44.1242
2023-04-22T13:24:39.126Z,44.4724
2023-04-22T13:25:47.131Z,44.3917
2023-04-22T13:26:55.289Z,44.6271
2023-04-22T13:28:03.315Z,46.1009
2023-04-22T13:29:11.392Z,45.6487
2023-04-22T13:30:19.508Z,46.2604
2023-04-22T13:31:27.505Z,46.4363
2023-04-22T13:32:35.549Z,47.3261
2023-04-22T13:33:43.565Z,47.9067
2023-04-22T13:34:51.640Z,48.7624
2023-04-22T13:35:59.811Z,48.9613
2023-04-22T13:37:07.746Z,48.8170
2023-04-22T13:38:15.824Z,48.1478
2023-04-22T13:39:23.874Z,48.8261
2023-04-22T13:40:32.035Z,48.7548
2023-04-22T13:41:40.117Z,49.0075
2023-04-22T13:42:48.152Z,48.8511
2023-04-22T13:43:56.260Z,48.5097
2023-04-22T13:45:04.316Z,48.5408